createdAt,value
2024-01-01T00:01:58.324Z,97437.32
2024-01-01T00:04:27.834Z,97439.27
2024-01-01T00:06:54.613Z,97439.21
2024-01-01T00:09:21.386Z,97443.36
2024-01-01T00:11:48.465Z,97438.65
2024-01-01T00:14:15.491Z,97441.55
2024-01-01T00:16:43.175Z,97444.52
2024-01-01T00:19:10.426Z,97439.52
2024-01-01T00:21:37.251Z,97429.80
2024-01-01T00:24:04.104Z,97429.20
2024-01-01T00:26:30.961Z,97429.94
2024-01-01T00:28:57.796Z,97433.56
2024-01-01T00:31:24.646Z,97428.02
2024-01-01T00:33:51.727Z,97424.06
2024-01-01T00:36:18.704Z,97415.02
2024-01-01T00:38:46.042Z,97410.98
2024-01-01T00:41:17.644Z,97412.27
2024-01-01T00:43:44.744Z,97407.20
2024-01-01T00:46:12.280Z,97403.70
2024-01-01T00:48:39.466Z,97408.63
2024-01-01T00:51:06.621Z,97413.25
2024-01-01T00:53:34.913Z,97416.13
2024-01-01T00:56:01.923Z,97419.86
2024-01-01T00:58:28.887Z,97423.65
2024-01-01T01:00:57.743Z,97421.48
2024-01-01T01:03:25.011Z,97417.63
2024-01-01T01:05:52.314Z,97417.84
2024-01-01T01:08:19.449Z,97414.18
2024-01-01T01:10:47.321Z,97414.63
2024-01-01T01:13:14.129Z,97413.96
2024-01-01T01:15:40.934Z,97417.02
2024-01-01T01:18:09.120Z,97425.83
2024-01-01T01:20:36.207Z,97426.36
2024-01-01T01:23:03.437Z,97422.02
2024-01-01T01:25:31.304Z,97415.92
2024-01-01T01:27:59.233Z,97413.45
2024-01-01T01:30:26.089Z,97414.13
2024-01-01T01:32:53.016Z,97414.23
2024-01-01T01:35:19.891Z,97410.98
2024-01-01T01:37:46.694Z,97404.81
2024-01-01T01:40:13.850Z,97401.95
2024-01-01T01:42:40.929Z,97402.31
2024-01-01T01:45:08.250Z,97404.41
2024-01-01T01:47:36.769Z,97406.08
2024-01-01T01:50:05.336Z,97405.89
2024-01-01T01:52:32.347Z,97399.81
2024-01-01T01:54:59.473Z,97404.21
2024-01-01T01:57:27.680Z,97407.18
2024-01-01T01:59:54.852Z,97413.35
2024-01-01T02:02:24.869Z,97407.73
2024-01-01T02:04:51.978Z,97405.45
2024-01-01T02:07:18.984Z,97398.38
2024-01-01T02:09:45.946Z,97402.98
2024-01-01T02:12:12.781Z,97410.09
2024-01-01T02:14:39.578Z,97411.21
2024-01-01T02:17:06.617Z,97410.79
2024-01-01T02:19:34.798Z,97402.86
2024-01-01T02:22:03.023Z,97402.66
2024-01-01T02:24:29.917Z,97402.31
2024-01-01T02:26:56.748Z,97403.45
2024-01-01T02:29:24.517Z,97401.61
2024-01-01T02:31:51.771Z,97399.13
2024-01-01T02:34:19.938Z,97397.59
2024-01-01T02:36:46.729Z,97397.15
2024-01-01T02:39:13.533Z,97398.72
2024-01-01T02:41:41.063Z,97395.31
2024-01-01T02:44:08.431Z,97393.39
2024-01-01T02:46:35.625Z,97390.09
2024-01-01T02:49:02.548Z,97383.80
2024-01-01T02:51:29.376Z,97372.63
2024-01-01T02:53:58.382Z,97370.41
2024-01-01T02:56:25.628Z,97370.18
2024-01-01T02:58:54.475Z,97374.39
2024-01-01T03:01:21.768Z,97375.08
2024-01-01T03:03:48.608Z,97378.95
2024-01-01T03:06:19.519Z,97379.91
2024-01-01T03:08:46.997Z,97378.44
2024-01-01T03:11:14.080Z,97378.96
2024-01-01T03:13:41.088Z,97388.99
2024-01-01T03:16:09.338Z,97390.90
2024-01-01T03:18:36.689Z,97397.20
2024-01-01T03:21:05.062Z,97395.36
2024-01-01T03:23:32.189Z,97397.27
2024-01-01T03:25:59.198Z,97402.25
2024-01-01T03:28:26.092Z,97400.11
2024-01-01T03:30:53.464Z,97407.20
2024-01-01T03:33:20.469Z,97410.25
2024-01-01T03:35:47.407Z,97410.58
2024-01-01T03:38:14.332Z,97414.70
2024-01-01T03:40:41.914Z,97415.16
2024-01-01T03:43:08.947Z,97416.37
2024-01-01T03:45:35.928Z,97403.68
2024-01-01T03:48:03.638Z,97398.02
2024-01-01T03:50:30.747Z,97392.71
2024-01-01T03:52:57.864Z,97388.88
2024-01-01T03:55:24.838Z,97388.06
2024-01-01T03:57:51.786Z,97384.11
2024-01-01T04:00:18.880Z,97381.94
2024-01-01T04:02:47.845Z,97374.70
2024-01-01T04:05:15.046Z,97365.37
2024-01-01T04:07:42.542Z,97361.46
2024-01-01T04:10:10.801Z,97358.73
2024-01-01T04:12:38.580Z,97356.91
2024-01-01T04:15:06.674Z,97359.27
2024-01-01T04:17:34.123Z,97355.16
2024-01-01T04:20:01.220Z,97353.35
2024-01-01T04:22:28.149Z,97355.55
2024-01-01T04:24:55.140Z,97358.66
2024-01-01T04:27:22.000Z,97356.55
2024-01-01T04:29:49.478Z,97355.50
2024-01-01T04:32:16.343Z,97355.49
2024-01-01T04:34:43.200Z,97358.33
2024-01-01T04:37:10.068Z,97360.88
2024-01-01T04:39:36.900Z,97364.81
2024-01-01T04:42:04.765Z,97366.31
2024-01-01T04:44:31.786Z,97365.77
2024-01-01T04:46:59.110Z,97357.58
2024-01-01T04:49:26.018Z,97344.23
2024-01-01T04:51:53.459Z,97345.05
2024-01-01T04:54:20.340Z,97345.48
2024-01-01T04:56:47.134Z,97344.01
2024-01-01T04:59:14.462Z,97344.05
2024-01-01T05:01:41.360Z,97333.14
2024-01-01T05:04:08.302Z,97332.52
2024-01-01T05:06:35.295Z,97334.19
2024-01-01T05:09:02.098Z,97332.73
2024-01-01T05:11:30.706Z,97326.88
2024-01-01T05:13:58.093Z,97326.74
2024-01-01T05:16:25.007Z,97329.48
2024-01-01T05:18:52.108Z,97328.87
2024-01-01T05:21:19.029Z,97328.54
2024-01-01T05:23:45.950Z,97324.02
2024-01-01T05:26:13.009Z,97320.71
2024-01-01T05:28:40.180Z,97311.04
2024-01-01T05:31:06.997Z,97308.67
2024-01-01T05:33:35.075Z,97308.06
2024-01-01T05:36:02.298Z,97298.67
2024-01-01T05:38:29.949Z,97291.73
2024-01-01T05:40:56.727Z,97284.91
2024-01-01T05:43:23.933Z,97284.70
2024-01-01T05:45:50.773Z,97285.52
2024-01-01T05:48:25.693Z,97290.64
2024-01-01T05:50:56.965Z,97286.58
2024-01-01T05:53:23.857Z,97286.34
2024-01-01T05:55:51.332Z,97282.20
2024-01-01T05:58:19.252Z,97285.70
2024-01-01T06:00:46.504Z,97276.74
2024-01-01T06:03:13.653Z,97276.73
2024-01-01T06:05:41.701Z,97274.55
2024-01-01T06:08:08.899Z,97272.35
2024-01-01T06:10:36.279Z,97270.35
2024-01-01T06:13:04.067Z,97267.27
2024-01-01T06:15:30.882Z,97260.75
2024-01-01T06:17:58.021Z,97259.12
2024-01-01T06:20:25.063Z,97258.38
2024-01-01T06:22:51.969Z,97265.14
2024-01-01T06:25:19.370Z,97267.27
2024-01-01T06:27:46.619Z,97268.66
2024-01-01T06:30:13.624Z,97276.91
2024-01-01T06:32:40.559Z,97289.01
2024-01-01T06:35:08.178Z,97297.36
2024-01-01T06:37:35.214Z,97304.80
2024-01-01T06:40:02.843Z,97305.23
2024-01-01T06:42:29.888Z,97305.09
2024-01-01T06:45:08.212Z,97309.98
2024-01-01T06:47:35.295Z,97306.16
2024-01-01T06:50:02.419Z,97316.08
2024-01-01T06:52:29.383Z,97323.66
2024-01-01T06:54:56.574Z,97332.78
2024-01-01T06:57:23.390Z,97339.73
2024-01-01T06:59:50.190Z,97346.41
2024-01-01T07:02:17.218Z,97348.02
2024-01-01T07:04:44.221Z,97342.33
2024-01-01T07:07:11.830Z,97337.55
2024-01-01T07:09:39.580Z,97340.15
2024-01-01T07:12:21.612Z,97338.20
2024-01-01T07:14:49.177Z,97332.63
2024-01-01T07:17:16.946Z,97332.29
2024-01-01T07:19:44.202Z,97330.48
2024-01-01T07:22:11.392Z,97327.81
2024-01-01T07:24:38.814Z,97328.05
2024-01-01T07:27:06.484Z,97315.46
2024-01-01T07:29:33.314Z,97307.83
2024-01-01T07:32:00.245Z,97303.48
2024-01-01T07:34:27.417Z,97305.20
2024-01-01T07:36:56.353Z,97307.10
2024-01-01T07:39:24.696Z,97308.01
2024-01-01T07:41:54.840Z,97315.85
2024-01-01T07:44:22.775Z,97322.58
2024-01-01T07:46:50.361Z,97326.92
2024-01-01T07:49:18.087Z,97335.23
2024-01-01T07:51:45.137Z,97335.45
2024-01-01T07:54:12.154Z,97334.86
2024-01-01T07:56:44.939Z,97333.49
2024-01-01T07:59:13.576Z,97334.52
2024-01-01T08:01:41.720Z,97332.55
2024-01-01T08:04:09.032Z,97333.34
2024-01-01T08:06:37.582Z,97333.00
2024-01-01T08:09:04.950Z,97332.17
2024-01-01T08:11:32.006Z,97331.52
2024-01-01T08:13:59.349Z,97329.55
2024-01-01T08:16:27.101Z,97331.83
2024-01-01T08:18:54.665Z,97330.95
2024-01-01T08:21:22.641Z,97330.27
2024-01-01T08:23:52.353Z,97331.98
2024-01-01T08:26:20.960Z,97328.83
2024-01-01T08:28:54.013Z,97327.68
2024-01-01T08:31:21.974Z,97329.72
2024-01-01T08:33:50.589Z,97328.45
2024-01-01T08:36:17.927Z,97326.55
2024-01-01T08:38:44.726Z,97326.60
2024-01-01T08:41:13.032Z,97328.77
2024-01-01T08:43:41.092Z,97330.31
2024-01-01T08:46:07.875Z,97334.29
2024-01-01T08:48:35.030Z,97340.16
2024-01-01T08:51:02.650Z,97341.70
2024-01-01T08:53:31.592Z,97341.16
2024-01-01T08:56:00.136Z,97339.83
2024-01-01T08:58:27.756Z,97332.98
2024-01-01T09:00:54.637Z,97333.25
2024-01-01T09:03:21.492Z,97334.81
2024-01-01T09:05:48.517Z,97336.33
2024-01-01T09:08:15.460Z,97339.98
2024-01-01T09:10:42.377Z,97338.48
2024-01-01T09:13:09.526Z,97336.75
2024-01-01T09:15:36.373Z,97338.15
2024-01-01T09:18:03.444Z,97342.30
2024-01-01T09:20:30.839Z,97336.17
2024-01-01T09:22:58.163Z,97337.26
2024-01-01T09:25:25.097Z,97337.84
2024-01-01T09:27:52.117Z,97335.36
2024-01-01T09:30:19.063Z,97332.59
2024-01-01T09:32:46.037Z,97335.27
2024-01-01T09:35:13.198Z,97334.86
2024-01-01T09:37:40.122Z,97334.98
2024-01-01T09:40:07.824Z,97335.16
2024-01-01T09:42:34.815Z,97334.55
2024-01-01T09:45:04.535Z,97334.98
2024-01-01T09:47:33.936Z,97335.89
2024-01-01T09:50:01.192Z,97339.03
2024-01-01T09:52:28.372Z,97337.54
2024-01-01T09:54:55.565Z,97339.66
2024-01-01T09:57:22.651Z,97335.20
2024-01-01T09:59:49.502Z,97341.16
2024-01-01T10:02:16.328Z,97341.19
2024-01-01T10:04:44.118Z,97344.29
2024-01-01T10:07:10.978Z,97344.31
2024-01-01T10:09:50.728Z,97352.55
2024-01-01T10:12:23.212Z,97350.88
2024-01-01T10:14:51.802Z,97350.62
2024-01-01T10:17:19.875Z,97350.77
2024-01-01T10:19:57.931Z,97353.15
2024-01-01T10:22:32.138Z,97350.83
2024-01-01T10:25:13.989Z,97350.70
2024-01-01T10:27:44.932Z,97350.56
2024-01-01T10:30:12.699Z,97352.27
2024-01-01T10:32:42.172Z,97351.96
2024-01-01T10:35:11.510Z,97356.52
2024-01-01T10:37:39.861Z,97355.73
2024-01-01T10:40:09.050Z,97351.48
2024-01-01T10:42:36.046Z,97350.77
2024-01-01T10:45:06.608Z,97352.98
2024-01-01T10:47:34.498Z,97350.39
2024-01-01T10:50:31.836Z,97349.38
2024-01-01T10:53:08.158Z,97354.48
2024-01-01T10:55:53.335Z,97357.50
2024-01-01T10:58:25.291Z,97357.53
2024-01-01T11:01:12.596Z,97360.30
2024-01-01T11:03:40.973Z,97360.42
2024-01-01T11:06:32.930Z,97360.40
2024-01-01T11:09:19.974Z,97352.19
2024-01-01T11:11:47.980Z,97349.31
2024-01-01T11:14:46.792Z,97348.91
2024-01-01T11:17:23.794Z,97350.98
2024-01-01T11:19:52.845Z,97355.80
2024-01-01T11:22:32.742Z,97357.67
2024-01-01T11:25:01.412Z,97357.98
2024-01-01T11:27:35.719Z,97354.91
2024-01-01T11:30:08.816Z,97357.06
2024-01-01T11:32:36.785Z,97364.36
2024-01-01T11:35:05.907Z,97372.09
2024-01-01T11:37:34.010Z,97369.77
2024-01-01T11:40:05.864Z,97364.82
2024-01-01T11:42:33.224Z,97363.95
2024-01-01T11:45:12.759Z,97362.66
2024-01-01T11:47:41.218Z,97362.54
2024-01-01T11:50:09.870Z,97367.48
2024-01-01T11:52:37.204Z,97365.77
2024-01-01T11:55:04.694Z,97367.97
2024-01-01T11:57:31.939Z,97369.41
2024-01-01T11:59:59.291Z,97370.14
2024-01-01T12:02:26.721Z,97372.23
2024-01-01T12:04:56.103Z,97372.92
2024-01-01T12:07:30.870Z,97372.55
2024-01-01T12:10:07.878Z,97374.35
2024-01-01T12:12:40.319Z,97377.32
2024-01-01T12:15:17.682Z,97377.48
2024-01-01T12:17:49.513Z,97378.58
2024-01-01T12:20:18.326Z,97381.23
2024-01-01T12:22:46.528Z,97379.73
2024-01-01T12:25:18.327Z,97382.42
2024-01-01T12:27:46.299Z,97382.77
2024-01-01T12:30:28.942Z,97384.27
2024-01-01T12:32:56.092Z,97383.53
2024-01-01T12:35:23.216Z,97382.81
2024-01-01T12:37:51.396Z,97385.38
2024-01-01T12:40:18.555Z,97381.69
2024-01-01T12:42:46.140Z,97382.61
2024-01-01T12:45:17.916Z,97383.69
2024-01-01T12:47:45.015Z,97378.61
2024-01-01T12:50:12.696Z,97377.88
2024-01-01T12:52:40.170Z,97378.27
2024-01-01T12:55:08.494Z,97378.57
2024-01-01T12:57:35.201Z,97381.89
2024-01-01T13:00:02.480Z,97378.15
2024-01-01T13:02:29.939Z,97378.83
2024-01-01T13:04:56.777Z,97378.11
2024-01-01T13:07:24.040Z,97378.30
2024-01-01T13:09:50.983Z,97378.48
2024-01-01T13:12:18.233Z,97380.92
2024-01-01T13:14:46.052Z,97382.70
2024-01-01T13:17:13.487Z,97387.32
2024-01-01T13:19:40.479Z,97386.17
2024-01-01T13:22:09.378Z,97387.77
2024-01-01T13:24:37.214Z,97391.69
2024-01-01T13:27:04.608Z,97390.23
2024-01-01T13:29:32.280Z,97389.42
2024-01-01T13:31:59.055Z,97387.42
2024-01-01T13:34:26.044Z,97388.70
2024-01-01T13:36:53.335Z,97391.11
2024-01-01T13:39:20.173Z,97394.14
2024-01-01T13:41:47.844Z,97396.28
2024-01-01T13:44:14.898Z,97397.75
2024-01-01T13:46:42.020Z,97397.05
2024-01-01T13:49:08.910Z,97397.41
2024-01-01T13:51:35.919Z,97399.81
2024-01-01T13:54:02.940Z,97402.63
2024-01-01T13:56:29.751Z,97403.63
2024-01-01T13:58:56.593Z,97403.92
2024-01-01T14:01:23.460Z,97400.16
2024-01-01T14:03:51.386Z,97401.08
2024-01-01T14:06:18.408Z,97397.55
2024-01-01T14:08:45.374Z,97399.50
2024-01-01T14:11:12.687Z,97400.52
2024-01-01T14:13:39.480Z,97400.34
2024-01-01T14:16:06.400Z,97401.89
2024-01-01T14:18:33.297Z,97404.38
2024-01-01T14:21:00.119Z,97404.85
2024-01-01T14:23:26.885Z,97407.06
2024-01-01T14:25:54.368Z,97409.93
2024-01-01T14:28:21.242Z,97412.02
2024-01-01T14:30:52.849Z,97412.55
2024-01-01T14:33:23.237Z,97410.60
2024-01-01T14:35:50.122Z,97412.85
2024-01-01T14:38:17.564Z,97411.77
2024-01-01T14:40:44.810Z,97416.05
2024-01-01T14:43:11.546Z,97421.62
2024-01-01T14:45:38.332Z,97420.41
2024-01-01T14:48:05.936Z,97423.65
2024-01-01T14:50:39.845Z,97425.98
2024-01-01T14:53:08.309Z,97426.69
2024-01-01T14:55:36.692Z,97432.84
2024-01-01T14:58:03.567Z,97434.50
2024-01-01T15:00:31.437Z,97438.17
2024-01-01T15:02:58.826Z,97433.67
2024-01-01T15:05:27.395Z,97429.88
2024-01-01T15:07:54.756Z,97433.89
2024-01-01T15:10:21.492Z,97437.34
2024-01-01T15:12:48.600Z,97438.12
2024-01-01T15:15:16.244Z,97441.34
2024-01-01T15:17:44.725Z,97436.91
2024-01-01T15:20:12.430Z,97436.63
2024-01-01T15:22:39.689Z,97432.89
2024-01-01T15:25:06.613Z,97432.42
2024-01-01T15:27:33.299Z,97435.38
2024-01-01T15:30:00.509Z,97441.61
2024-01-01T15:32:28.220Z,97444.50
2024-01-01T15:34:55.248Z,97450.77
2024-01-01T15:37:22.163Z,97458.02
2024-01-01T15:39:49.025Z,97457.33
2024-01-01T15:42:15.727Z,97462.81
2024-01-01T15:44:42.710Z,97462.13
2024-01-01T15:47:10.341Z,97459.68
2024-01-01T15:49:37.241Z,97462.79
2024-01-01T15:52:11.249Z,97467.57
2024-01-01T15:54:41.429Z,97470.79
2024-01-01T15:57:09.590Z,97471.05
2024-01-01T15:59:37.067Z,97475.65
2024-01-01T16:02:07.821Z,97482.25
2024-01-01T16:04:37.532Z,97489.06
2024-01-01T16:07:04.661Z,97491.48
2024-01-01T16:09:31.761Z,97495.11
2024-01-01T16:11:58.786Z,97495.88
2024-01-01T16:14:26.002Z,97502.98
2024-01-01T16:16:56.557Z,97507.13
2024-01-01T16:19:33.198Z,97512.64
2024-01-01T16:22:01.396Z,97513.12
2024-01-01T16:24:28.287Z,97511.45
2024-01-01T16:26:55.078Z,97514.11
2024-01-01T16:29:21.899Z,97517.98
2024-01-01T16:31:49.062Z,97522.98
2024-01-01T16:34:16.221Z,97523.50
2024-01-01T16:36:46.158Z,97526.61
2024-01-01T16:39:15.822Z,97527.81
2024-01-01T16:41:42.539Z,97534.34
2024-01-01T16:44:10.037Z,97541.01
2024-01-01T16:46:37.227Z,97542.61
2024-01-01T16:49:04.030Z,97550.80
2024-01-01T16:51:30.789Z,97557.05
2024-01-01T16:53:57.960Z,97556.75
2024-01-01T16:56:26.764Z,97558.23
2024-01-01T16:58:53.981Z,97557.08
2024-01-01T17:01:24.023Z,97555.90
2024-01-01T17:03:50.903Z,97557.95
2024-01-01T17:06:21.542Z,97561.48
2024-01-01T17:08:49.057Z,97562.27
2024-01-01T17:11:16.996Z,97566.19
2024-01-01T17:13:44.802Z,97568.13
2024-01-01T17:16:14.821Z,97573.80
2024-01-01T17:18:44.276Z,97570.52
2024-01-01T17:21:11.646Z,97573.86
2024-01-01T17:23:39.116Z,97571.34
2024-01-01T17:26:05.996Z,97577.37
2024-01-01T17:28:34.914Z,97575.77
2024-01-01T17:31:03.101Z,97576.95
2024-01-01T17:33:29.923Z,97578.69
2024-01-01T17:35:58.911Z,97579.16
2024-01-01T17:38:26.380Z,97584.40
2024-01-01T17:40:55.161Z,97585.13
2024-01-01T17:43:22.828Z,97583.84
2024-01-01T17:45:49.768Z,97584.73
2024-01-01T17:48:16.608Z,97584.89
2024-01-01T17:50:43.657Z,97586.05
2024-01-01T17:53:10.915Z,97583.64
2024-01-01T17:55:37.686Z,97582.46
2024-01-01T17:58:04.464Z,97580.87
2024-01-01T18:00:31.693Z,97583.10
2024-01-01T18:02:58.841Z,97584.80
2024-01-01T18:05:26.179Z,97583.33
2024-01-01T18:07:53.629Z,97584.83
2024-01-01T18:10:20.386Z,97583.52
2024-01-01T18:12:47.457Z,97588.33
2024-01-01T18:15:15.901Z,97594.38
2024-01-01T18:17:43.316Z,97599.18
2024-01-01T18:20:11.078Z,97604.02
2024-01-01T18:22:39.306Z,97610.63
2024-01-01T18:25:06.690Z,97611.24
2024-01-01T18:27:35.198Z,97608.35
2024-01-01T18:30:02.805Z,97610.77
2024-01-01T18:32:31.332Z,97612.45
2024-01-01T18:34:58.284Z,97611.52
2024-01-01T18:37:25.143Z,97610.23
2024-01-01T18:39:52.156Z,97610.94
2024-01-01T18:42:18.955Z,97609.20
2024-01-01T18:44:45.868Z,97610.77
2024-01-01T18:47:12.755Z,97611.67
2024-01-01T18:49:39.817Z,97611.90
2024-01-01T18:52:07.128Z,97612.88
2024-01-01T18:54:33.853Z,97612.92
2024-01-01T18:57:00.664Z,97617.06
2024-01-01T18:59:27.482Z,97615.08
2024-01-01T19:01:54.865Z,97618.55
2024-01-01T19:04:21.823Z,97621.33
2024-01-01T19:06:48.948Z,97621.99
2024-01-01T19:09:15.691Z,97622.75
2024-01-01T19:11:43.160Z,97625.19
2024-01-01T19:14:14.655Z,97630.55
2024-01-01T19:16:41.953Z,97631.05
2024-01-01T19:19:09.519Z,97631.59
2024-01-01T19:21:43.315Z,97636.36
2024-01-01T19:24:17.210Z,97638.13
2024-01-01T19:26:47.711Z,97639.80
2024-01-01T19:29:15.408Z,97647.75
2024-01-01T19:31:43.635Z,97652.61
2024-01-01T19:34:11.224Z,97653.65
2024-01-01T19:36:38.343Z,97651.00
2024-01-01T19:39:06.296Z,97648.49
2024-01-01T19:41:33.609Z,97651.49
2024-01-01T19:44:02.422Z,97649.43
2024-01-01T19:46:29.553Z,97652.38
2024-01-01T19:48:58.530Z,97653.65
2024-01-01T19:51:25.635Z,97649.50
2024-01-01T19:53:52.626Z,97650.32
2024-01-01T19:56:26.635Z,97648.46
2024-01-01T19:58:53.578Z,97649.91
2024-01-01T20:01:20.969Z,97645.43
2024-01-01T20:03:47.974Z,97651.39
2024-01-01T20:06:14.891Z,97651.44
2024-01-01T20:08:41.830Z,97661.02
2024-01-01T20:11:09.331Z,97650.16
2024-01-01T20:13:39.856Z,97653.89
2024-01-01T20:16:06.927Z,97652.85
2024-01-01T20:18:35.959Z,97652.30
2024-01-01T20:21:02.918Z,97647.73
2024-01-01T20:23:29.893Z,97647.25
2024-01-01T20:25:56.788Z,97650.03
2024-01-01T20:28:23.509Z,97651.04
2024-01-01T20:30:50.461Z,97653.84
2024-01-01T20:33:17.526Z,97655.70
2024-01-01T20:35:44.318Z,97654.79
2024-01-01T20:38:11.758Z,97658.77
2024-01-01T20:40:38.529Z,97657.80
2024-01-01T20:43:05.331Z,97656.61
2024-01-01T20:45:32.291Z,97663.23
2024-01-01T20:47:59.839Z,97657.44
2024-01-01T20:50:26.736Z,97661.29
2024-01-01T20:52:56.485Z,97662.31
2024-01-01T20:55:25.432Z,97661.61
2024-01-01T20:57:52.217Z,97662.05
2024-01-01T21:00:19.904Z,97665.29
2024-01-01T21:02:46.726Z,97666.64
2024-01-01T21:05:14.405Z,97670.09
2024-01-01T21:07:44.303Z,97675.38
2024-01-01T21:10:11.918Z,97671.42
2024-01-01T21:12:40.922Z,97670.17
2024-01-01T21:15:13.002Z,97672.13
2024-01-01T21:17:42.529Z,97674.02
2024-01-01T21:20:10.334Z,97675.59
2024-01-01T21:22:37.120Z,97676.91
2024-01-01T21:25:04.818Z,97681.40
2024-01-01T21:27:31.577Z,97678.81
2024-01-01T21:29:58.425Z,97681.08
2024-01-01T21:32:25.354Z,97681.00
2024-01-01T21:34:52.532Z,97683.90
2024-01-01T21:37:19.511Z,97684.63
2024-01-01T21:39:46.419Z,97681.73
2024-01-01T21:42:13.114Z,97681.25
2024-01-01T21:44:39.864Z,97681.13
2024-01-01T21:47:07.940Z,97681.82
2024-01-01T21:49:34.686Z,97684.95
2024-01-01T21:52:01.672Z,97685.02
2024-01-01T21:54:28.739Z,97675.59
2024-01-01T21:56:55.419Z,97674.69
2024-01-01T21:59:22.306Z,97671.02
2024-01-01T22:01:49.383Z,97670.87
2024-01-01T22:04:16.271Z,97670.87
2024-01-01T22:06:44.126Z,97673.90
2024-01-01T22:09:11.744Z,97675.35
2024-01-01T22:11:38.492Z,97673.48
2024-01-01T22:14:05.350Z,97669.20
2024-01-01T22:16:32.109Z,97672.32
2024-01-01T22:18:58.940Z,97670.33
2024-01-01T22:21:26.176Z,97673.53
2024-01-01T22:23:52.976Z,97666.64
2024-01-01T22:26:20.614Z,97668.30
2024-01-01T22:28:47.951Z,97667.57
2024-01-01T22:31:18.449Z,97663.82
2024-01-01T22:33:45.453Z,97663.77
2024-01-01T22:36:12.291Z,97664.27
2024-01-01T22:38:44.274Z,97664.02
2024-01-01T22:41:11.001Z,97663.29
2024-01-01T22:43:37.817Z,97664.90
2024-01-01T22:46:05.469Z,97661.39
2024-01-01T22:48:33.110Z,97665.43
2024-01-01T22:51:00.074Z,97663.56
2024-01-01T22:53:27.226Z,97665.31
2024-01-01T22:55:54.132Z,97667.09
2024-01-01T22:58:20.977Z,97666.23
2024-01-01T23:00:50.580Z,97669.59
2024-01-01T23:03:17.402Z,97667.09
2024-01-01T23:05:44.289Z,97666.23
2024-01-01T23:08:11.290Z,97668.15
2024-01-01T23:10:38.070Z,97669.81
2024-01-01T23:13:04.999Z,97666.92
2024-01-01T23:15:32.180Z,97668.85
2024-01-01T23:18:01.112Z,97665.00
2024-01-01T23:20:27.898Z,97662.54
2024-01-01T23:22:56.264Z,97660.52
2024-01-01T23:25:23.453Z,97662.06
2024-01-01T23:27:50.979Z,97662.87
2024-01-01T23:30:19.157Z,97661.54
2024-01-01T23:32:47.063Z,97659.89
2024-01-01T23:35:14.041Z,97657.39
2024-01-01T23:37:41.740Z,97657.73
2024-01-01T23:40:14.216Z,97657.67
2024-01-01T23:42:40.963Z,97658.83
2024-01-01T23:45:08.385Z,97660.70
2024-01-01T23:47:35.285Z,97659.89
2024-01-01T23:50:02.081Z,97661.92
2024-01-01T23:52:29.046Z,97661.40
2024-01-01T23:54:55.987Z,97661.15
2024-01-01T23:57:22.728Z,97656.25
2024-01-01T23:59:49.606Z,97656.16
